createdAt,value
2023-01-13T00:01:25.650Z,99989.44
2023-01-13T00:03:52.445Z,99986.09
2023-01-13T00:06:20.062Z,99988.59
2023-01-13T00:08:50.141Z,99991.69
2023-01-13T00:11:17.108Z,99983.78
2023-01-13T00:13:43.631Z,99984.44
2023-01-13T00:16:17.521Z,99973.59
2023-01-13T00:18:44.537Z,99978.16
2023-01-13T00:21:15.704Z,99970.69
2023-01-13T00:23:42.535Z,99974.19
2023-01-13T00:26:10.811Z,99967.97
2023-01-13T00:28:37.222Z,99959.00
2023-01-13T00:31:07.216Z,99971.50
2023-01-13T00:33:33.720Z,99967.75
2023-01-13T00:36:01.011Z,99978.59
2023-01-13T00:38:27.958Z,99970.25
2023-01-13T00:41:01.858Z,99961.09
2023-01-13T00:43:29.470Z,99975.47
2023-01-13T00:45:55.962Z,99988.38
2023-01-13T00:48:23.176Z,99984.41
2023-01-13T00:51:00.147Z,99978.38
2023-01-13T00:53:27.043Z,99963.19
2023-01-13T00:56:00.833Z,99970.47
2023-01-13T00:58:27.260Z,99979.84
2023-01-13T01:00:53.716Z,99968.19
2023-01-13T01:03:20.076Z,99970.28
2023-01-13T01:05:46.361Z,99964.03
2023-01-13T01:08:12.668Z,99974.66
2023-01-13T01:10:38.996Z,99973.81
2023-01-13T01:13:05.336Z,99970.69
2023-01-13T01:15:31.640Z,99953.00
2023-01-13T01:17:57.953Z,99972.34
2023-01-13T01:20:24.244Z,99970.88
2023-01-13T01:22:50.546Z,99975.03
2023-01-13T01:25:16.825Z,99973.59
2023-01-13T01:27:43.102Z,99971.50
2023-01-13T01:30:09.769Z,99978.59
2023-01-13T01:32:36.067Z,99986.69
2023-01-13T01:35:02.383Z,99987.34
2023-01-13T01:37:28.697Z,99983.59
2023-01-13T01:39:55.015Z,100011.88
2023-01-13T01:42:41.054Z,99994.22
2023-01-13T01:45:13.601Z,99997.72
2023-01-13T01:47:41.013Z,100027.81
2023-01-13T01:50:07.681Z,100017.63
2023-01-13T01:52:40.507Z,100018.81
2023-01-13T01:55:13.473Z,100027.06
2023-01-13T01:57:42.955Z,100022.47
2023-01-13T02:00:09.570Z,100012.84
2023-01-13T02:02:36.473Z,100009.50
2023-01-13T02:05:02.850Z,100007.56
2023-01-13T02:07:30.997Z,99994.91
2023-01-13T02:09:59.971Z,99988.06
2023-01-13T02:12:30.285Z,99990.38
2023-01-13T02:14:59.300Z,99990.56
2023-01-13T02:17:40.923Z,99992.03
2023-01-13T02:20:26.039Z,99986.63
2023-01-13T02:22:58.634Z,99967.13
2023-01-13T02:25:31.177Z,99982.91
2023-01-13T02:28:00.983Z,99993.72
2023-01-13T02:30:50.939Z,100001.56
2023-01-13T02:33:26.425Z,99993.47
2023-01-13T02:36:04.274Z,99995.34
2023-01-13T02:38:53.883Z,99996.19
2023-01-13T02:41:53.315Z,100003.25
2023-01-13T02:44:21.076Z,100012.78
2023-01-13T02:46:55.474Z,100003.63
2023-01-13T02:49:28.267Z,100011.13
2023-01-13T02:51:58.706Z,100001.81
2023-01-13T02:54:27.585Z,100003.25
2023-01-13T02:56:55.217Z,100003.25
2023-01-13T02:59:22.113Z,100003.88
2023-01-13T03:01:49.611Z,100001.56
2023-01-13T03:04:35.978Z,99993.03
2023-01-13T03:07:09.048Z,99999.06
2023-01-13T03:09:58.627Z,99999.06
2023-01-13T03:12:24.888Z,99994.47
2023-01-13T03:14:54.192Z,99995.31
2023-01-13T03:17:32.745Z,99990.97
2023-01-13T03:20:08.472Z,99966.66
2023-01-13T03:22:34.781Z,99982.00
2023-01-13T03:25:11.761Z,99976.41
2023-01-13T03:28:01.521Z,99981.56
2023-01-13T03:30:32.366Z,99974.50
2023-01-13T03:33:04.858Z,99938.88
2023-01-13T03:35:34.125Z,99960.78
2023-01-13T03:38:04.207Z,99975.28
2023-01-13T03:40:33.246Z,99973.25
2023-01-13T03:43:21.163Z,99982.38
2023-01-13T03:45:52.056Z,99982.59
2023-01-13T03:48:19.546Z,99981.09
2023-01-13T03:50:48.986Z,99977.59
2023-01-13T03:53:19.479Z,99982.97
2023-01-13T03:55:48.424Z,99982.13
2023-01-13T03:58:18.755Z,99978.59
2023-01-13T04:00:45.164Z,99987.94
2023-01-13T04:03:13.269Z,99982.34
2023-01-13T04:05:41.829Z,99983.38
2023-01-13T04:08:22.022Z,99984.63
2023-01-13T04:11:06.795Z,99976.72
2023-01-13T04:13:36.729Z,99977.91
2023-01-13T04:16:05.677Z,99971.66
2023-01-13T04:18:32.199Z,99979.06
2023-01-13T04:21:00.014Z,99977.16
2023-01-13T04:23:27.859Z,99981.50
2023-01-13T04:25:54.751Z,99987.03
2023-01-13T04:28:21.121Z,99981.78
2023-01-13T04:30:47.919Z,99992.97
2023-01-13T04:33:15.297Z,99949.41
2023-01-13T04:35:42.062Z,99978.13
2023-01-13T04:38:11.186Z,99979.56
2023-01-13T04:40:37.991Z,99982.44
2023-01-13T04:43:04.577Z,99978.06
2023-01-13T04:45:31.113Z,99989.25
2023-01-13T04:47:57.487Z,99982.56
2023-01-13T04:50:24.007Z,99989.19
2023-01-13T04:52:51.013Z,99995.16
2023-01-13T04:55:17.671Z,99996.19
2023-01-13T04:57:44.316Z,99998.69
2023-01-13T05:00:12.410Z,100000.56
2023-01-13T05:02:39.033Z,99997.94
2023-01-13T05:05:05.451Z,99989.84
2023-01-13T05:07:33.730Z,99976.56
2023-01-13T05:10:00.121Z,99996.66
2023-01-13T05:12:45.168Z,99987.56
2023-01-13T05:15:30.896Z,99986.75
2023-01-13T05:17:57.312Z,99982.56
2023-01-13T05:20:24.199Z,99974.88
2023-01-13T05:23:09.355Z,99975.84
2023-01-13T05:25:38.836Z,99985.38
2023-01-13T05:28:05.834Z,99976.16
2023-01-13T05:30:33.423Z,99970.78
2023-01-13T05:32:59.765Z,99975.78
2023-01-13T05:35:26.191Z,99982.00
2023-01-13T05:37:54.154Z,99981.56
2023-01-13T05:40:39.207Z,99982.13
2023-01-13T05:43:21.037Z,99984.38
2023-01-13T05:45:47.395Z,99984.63
2023-01-13T05:48:14.482Z,99995.22
2023-01-13T05:50:40.809Z,99993.66
2023-01-13T05:53:07.183Z,99995.94
2023-01-13T05:55:33.523Z,99996.19
2023-01-13T05:58:00.156Z,99991.19
2023-01-13T06:00:26.487Z,99992.94
2023-01-13T06:02:52.847Z,100004.13
2023-01-13T06:05:19.203Z,100007.22
2023-01-13T06:07:45.564Z,100012.00
2023-01-13T06:10:12.292Z,100016.91
2023-01-13T06:12:38.670Z,100016.88
2023-01-13T06:15:05.244Z,100024.59
2023-01-13T06:17:31.656Z,100021.81
2023-01-13T06:19:57.988Z,100027.00
2023-01-13T06:22:28.733Z,100030.59
2023-01-13T06:24:55.263Z,100031.06
2023-01-13T06:27:22.385Z,100036.88
2023-01-13T06:29:48.791Z,100036.50
2023-01-13T06:32:19.592Z,100028.03
2023-01-13T06:34:49.797Z,100035.53
2023-01-13T06:37:19.794Z,100055.28
2023-01-13T06:39:46.415Z,100039.50
2023-01-13T06:42:31.343Z,100050.75
2023-01-13T06:44:57.696Z,100052.00
2023-01-13T06:47:24.215Z,100055.88
2023-01-13T06:49:50.618Z,100048.66
2023-01-13T06:52:17.056Z,100055.28
2023-01-13T06:54:43.346Z,100050.06
2023-01-13T06:57:09.678Z,100062.31
2023-01-13T06:59:35.978Z,100055.28
2023-01-13T07:02:02.916Z,100046.97
2023-01-13T07:04:29.390Z,100057.38
2023-01-13T07:06:55.833Z,100071.97
2023-01-13T07:09:22.164Z,100077.34
2023-01-13T07:11:48.560Z,100073.38
2023-01-13T07:14:33.739Z,100069.00
2023-01-13T07:17:00.253Z,100080.44
2023-01-13T07:19:26.630Z,100077.28
2023-01-13T07:21:53.232Z,100080.53
2023-01-13T07:24:19.941Z,100079.28
2023-01-13T07:26:46.307Z,100087.34
2023-01-13T07:29:12.693Z,100095.97
2023-01-13T07:31:39.740Z,100091.84
2023-01-13T07:34:06.563Z,100083.38
2023-01-13T07:36:32.922Z,100103.47
2023-01-13T07:38:59.285Z,100102.88
2023-01-13T07:41:44.482Z,100090.19
2023-01-13T07:44:10.919Z,100087.25
2023-01-13T07:46:38.054Z,100100.03
2023-01-13T07:49:04.785Z,100097.06
2023-01-13T07:51:31.181Z,100094.13
2023-01-13T07:53:57.794Z,100098.84
2023-01-13T07:56:27.280Z,100105.00
2023-01-13T07:58:53.780Z,100107.25
2023-01-13T08:01:20.247Z,100116.91
2023-01-13T08:03:47.199Z,100117.75
2023-01-13T08:06:14.137Z,100121.50
2023-01-13T08:08:40.748Z,100120.38
2023-01-13T08:11:08.229Z,100116.38
2023-01-13T08:13:34.890Z,100122.59
2023-01-13T08:16:21.612Z,100122.81
2023-01-13T08:18:48.042Z,100126.16
2023-01-13T08:21:14.754Z,100130.97
2023-01-13T08:23:41.836Z,100128.09
2023-01-13T08:26:17.024Z,100129.56
2023-01-13T08:28:43.785Z,100133.31
2023-01-13T08:31:11.486Z,100134.50
2023-01-13T08:33:37.938Z,100144.09
2023-01-13T08:36:05.829Z,100142.88
2023-01-13T08:38:32.568Z,100148.69
2023-01-13T08:40:58.992Z,100149.25
2023-01-13T08:43:25.440Z,100163.59
2023-01-13T08:45:59.177Z,100160.81
2023-01-13T08:48:26.206Z,100170.44
2023-01-13T08:50:53.262Z,100173.22
2023-01-13T08:53:20.117Z,100166.47
2023-01-13T08:55:46.812Z,100177.78
2023-01-13T08:58:16.431Z,100176.31
2023-01-13T09:00:43.400Z,100166.16
2023-01-13T09:03:09.746Z,100179.53
2023-01-13T09:05:36.096Z,100171.91
2023-01-13T09:08:02.475Z,100174.19
2023-01-13T09:10:28.820Z,100182.34
2023-01-13T09:13:13.622Z,100161.34
2023-01-13T09:15:41.230Z,100141.03
2023-01-13T09:18:07.658Z,100147.00
2023-01-13T09:20:34.070Z,100154.72
2023-01-13T09:23:00.571Z,100158.72
2023-01-13T09:25:27.096Z,100158.31
2023-01-13T09:27:53.451Z,100152.13
2023-01-13T09:30:19.956Z,100156.09
2023-01-13T09:32:46.266Z,100160.72
2023-01-13T09:35:12.900Z,100161.31
2023-01-13T09:37:40.522Z,100167.19
2023-01-13T09:40:15.454Z,100167.31
2023-01-13T09:43:07.497Z,100172.72
2023-01-13T09:45:43.779Z,100164.22
2023-01-13T09:48:10.043Z,100165.06
2023-01-13T09:50:39.381Z,100181.72
2023-01-13T09:53:07.559Z,100167.19
2023-01-13T09:55:36.740Z,100184.91
2023-01-13T09:58:09.604Z,100180.03
2023-01-13T10:00:38.803Z,100155.06
2023-01-13T10:03:08.192Z,100175.69
2023-01-13T10:05:36.560Z,100169.50
2023-01-13T10:08:07.583Z,100158.09
2023-01-13T10:10:41.594Z,100166.19
2023-01-13T10:13:15.347Z,100175.53
2023-01-13T10:15:45.383Z,100164.50
2023-01-13T10:18:18.085Z,100184.47
2023-01-13T10:20:50.747Z,100167.81
2023-01-13T10:23:20.195Z,100172.78
2023-01-13T10:26:10.764Z,100168.59
2023-01-13T10:28:37.088Z,100171.16
2023-01-13T10:31:10.125Z,100165.41
2023-01-13T10:33:36.558Z,100182.28
2023-01-13T10:36:12.636Z,100172.72
2023-01-13T10:38:46.506Z,100167.59
2023-01-13T10:41:16.045Z,100175.03
2023-01-13T10:43:42.833Z,100179.28
2023-01-13T10:46:19.001Z,100181.38
2023-01-13T10:48:52.779Z,100174.28
2023-01-13T10:51:27.240Z,100176.78
2023-01-13T10:53:53.601Z,100181.16
2023-01-13T10:56:21.032Z,100188.47
2023-01-13T10:58:47.508Z,100190.50
2023-01-13T11:01:19.567Z,100196.00
2023-01-13T11:03:47.978Z,100198.06
2023-01-13T11:06:25.604Z,100198.69
2023-01-13T11:08:55.106Z,100203.91
2023-01-13T11:11:37.013Z,100198.28
2023-01-13T11:14:24.244Z,100203.06
2023-01-13T11:16:53.707Z,100199.34
2023-01-13T11:19:22.580Z,100211.38
2023-01-13T11:21:55.203Z,100210.97
2023-01-13T11:24:27.551Z,100223.09
2023-01-13T11:26:57.839Z,100223.91
2023-01-13T11:29:24.154Z,100221.00
2023-01-13T11:31:52.416Z,100224.97
2023-01-13T11:34:30.358Z,100214.81
2023-01-13T11:36:58.283Z,100236.19
2023-01-13T11:39:36.201Z,100243.50
2023-01-13T11:42:20.765Z,100243.69
2023-01-13T11:45:05.241Z,100247.81
2023-01-13T11:47:32.288Z,100239.34
2023-01-13T11:49:59.240Z,100252.75
2023-01-13T11:52:54.742Z,100236.72
2023-01-13T11:55:32.282Z,100226.50
2023-01-13T11:58:29.049Z,100254.41
2023-01-13T12:01:01.906Z,100225.75
2023-01-13T12:03:48.378Z,100247.47
2023-01-13T12:06:17.740Z,100257.88
2023-01-13T12:09:04.983Z,100251.28
2023-01-13T12:11:56.609Z,100257.09
2023-01-13T12:14:49.325Z,100258.81
2023-01-13T12:17:20.390Z,100260.72
2023-01-13T12:19:49.087Z,100248.22
2023-01-13T12:22:29.920Z,100258.16
2023-01-13T12:25:15.123Z,100261.69
2023-01-13T12:27:45.835Z,100260.00
2023-01-13T12:30:18.262Z,100261.00
2023-01-13T12:32:48.054Z,100259.69
2023-01-13T12:35:29.055Z,100277.09
2023-01-13T12:38:04.339Z,100257.31
2023-01-13T12:40:34.174Z,100265.84
2023-01-13T12:43:22.541Z,100269.56
2023-01-13T12:45:48.863Z,100274.66
2023-01-13T12:48:34.582Z,100265.09
2023-01-13T12:51:01.567Z,100256.25
2023-01-13T12:53:34.920Z,100263.63
2023-01-13T12:56:27.315Z,100250.44
2023-01-13T12:59:13.619Z,100263.34
2023-01-13T13:01:40.192Z,100259.97
2023-01-13T13:04:08.265Z,100265.19
2023-01-13T13:06:36.040Z,100268.16
2023-01-13T13:09:05.005Z,100274.38
2023-01-13T13:11:50.113Z,100277.03
2023-01-13T13:14:36.506Z,100272.97
2023-01-13T13:17:04.030Z,100278.38
2023-01-13T13:19:30.453Z,100295.81
2023-01-13T13:22:09.253Z,100289.06
2023-01-13T13:24:35.615Z,100301.72
2023-01-13T13:27:16.515Z,100309.41
2023-01-13T13:29:49.560Z,100333.81
2023-01-13T13:32:42.256Z,100328.31
2023-01-13T13:35:20.717Z,100336.72
2023-01-13T13:38:24.820Z,100347.16
2023-01-13T13:41:10.062Z,100353.53
2023-01-13T13:43:59.885Z,100361.09
2023-01-13T13:46:48.460Z,100360.88
2023-01-13T13:49:22.365Z,100359.50
2023-01-13T13:51:55.810Z,100362.31
2023-01-13T13:54:22.553Z,100360.81
2023-01-13T13:56:50.245Z,100359.56
2023-01-13T13:59:19.262Z,100379.50
2023-01-13T14:01:46.101Z,100391.22
2023-01-13T14:04:15.243Z,100403.22
2023-01-13T14:06:55.628Z,100420.00
2023-01-13T14:09:22.967Z,100408.38
2023-01-13T14:11:59.930Z,100421.75
2023-01-13T14:14:26.333Z,100410.50
2023-01-13T14:16:54.835Z,100409.03
2023-01-13T14:19:31.745Z,100405.38
2023-01-13T14:22:01.237Z,100410.03
2023-01-13T14:24:28.607Z,100421.00
2023-01-13T14:27:08.653Z,100432.47
2023-01-13T14:29:35.135Z,100418.84
2023-01-13T14:32:01.620Z,100424.72
2023-01-13T14:34:32.279Z,100423.69
2023-01-13T14:37:00.521Z,100429.94
2023-01-13T14:39:34.093Z,100434.13
2023-01-13T14:42:00.399Z,100437.75
2023-01-13T14:44:28.494Z,100442.59
2023-01-13T14:46:56.596Z,100439.53
2023-01-13T14:49:39.825Z,100448.47
2023-01-13T14:52:11.330Z,100453.50
2023-01-13T14:54:45.516Z,100458.72
2023-01-13T14:57:22.521Z,100459.16
2023-01-13T14:59:55.396Z,100459.81
2023-01-13T15:02:24.855Z,100465.88
2023-01-13T15:04:54.164Z,100469.78
2023-01-13T15:07:25.034Z,100466.25
2023-01-13T15:09:53.529Z,100476.69
2023-01-13T15:12:40.516Z,100482.09
2023-01-13T15:15:22.722Z,100490.81
2023-01-13T15:17:49.494Z,100479.75
2023-01-13T15:20:16.920Z,100499.28
2023-01-13T15:22:43.309Z,100499.00
2023-01-13T15:25:10.168Z,100499.38
2023-01-13T15:27:37.159Z,100514.19
2023-01-13T15:30:12.596Z,100515.66
2023-01-13T15:32:38.977Z,100523.31
2023-01-13T15:35:05.581Z,100523.47
2023-01-13T15:37:32.041Z,100518.09
2023-01-13T15:39:58.374Z,100519.66
2023-01-13T15:42:43.425Z,100520.31
2023-01-13T15:45:31.559Z,100533.78
2023-01-13T15:47:58.551Z,100541.25
2023-01-13T15:50:25.595Z,100541.25
2023-01-13T15:52:51.936Z,100552.88
2023-01-13T15:55:18.295Z,100555.75
2023-01-13T15:57:48.016Z,100521.81
2023-01-13T16:00:20.194Z,100559.97
2023-01-13T16:02:46.574Z,100519.28
2023-01-13T16:05:12.921Z,100551.06
2023-01-13T16:07:39.524Z,100556.78
2023-01-13T16:10:08.340Z,100563.56
2023-01-13T16:12:34.690Z,100573.31
2023-01-13T16:15:01.056Z,100571.31
2023-01-13T16:17:30.424Z,100563.75
2023-01-13T16:19:56.797Z,100572.16
2023-01-13T16:22:23.127Z,100573.56
2023-01-13T16:24:49.611Z,100579.06
2023-01-13T16:27:20.229Z,100584.13
2023-01-13T16:29:47.584Z,100581.44
2023-01-13T16:32:14.575Z,100587.16
2023-01-13T16:34:40.981Z,100593.88
2023-01-13T16:37:17.499Z,100584.78
2023-01-13T16:39:43.976Z,100599.28
2023-01-13T16:42:10.290Z,100602.34
2023-01-13T16:44:36.644Z,100605.16
2023-01-13T16:47:03.111Z,100605.00
2023-01-13T16:49:29.448Z,100620.88
2023-01-13T16:51:55.769Z,100620.25
2023-01-13T16:54:22.106Z,100630.56
2023-01-13T16:56:48.482Z,100610.91
2023-01-13T16:59:14.802Z,100631.16
2023-01-13T17:01:42.582Z,100648.34
2023-01-13T17:04:16.669Z,100639.78
2023-01-13T17:06:48.043Z,100654.66
2023-01-13T17:09:16.655Z,100659.22
2023-01-13T17:11:43.012Z,100655.19
2023-01-13T17:14:18.210Z,100662.94
2023-01-13T17:16:45.225Z,100664.59
2023-01-13T17:19:11.976Z,100664.09
2023-01-13T17:21:38.328Z,100676.41
2023-01-13T17:24:06.237Z,100675.75
2023-01-13T17:26:41.977Z,100672.69
2023-01-13T17:29:11.597Z,100654.16
2023-01-13T17:31:38.224Z,100672.72
2023-01-13T17:34:05.039Z,100672.72
2023-01-13T17:36:31.810Z,100676.97
2023-01-13T17:38:58.202Z,100685.91
2023-01-13T17:41:25.236Z,100693.47
2023-01-13T17:43:51.898Z,100691.59
2023-01-13T17:46:19.755Z,100695.41
2023-01-13T17:48:46.617Z,100693.31
2023-01-13T17:51:13.884Z,100692.72
2023-01-13T17:53:44.091Z,100704.84
2023-01-13T17:56:10.473Z,100699.63
2023-01-13T17:58:37.633Z,100712.28
2023-01-13T18:01:11.312Z,100708.47
2023-01-13T18:03:38.254Z,100718.56
2023-01-13T18:06:05.911Z,100723.97
2023-01-13T18:08:32.235Z,100724.47
2023-01-13T18:10:59.235Z,100731.88
2023-01-13T18:13:26.130Z,100723.97
2023-01-13T18:16:05.617Z,100731.88
2023-01-13T18:18:32.018Z,100740.16
2023-01-13T18:21:17.295Z,100737.00
2023-01-13T18:24:02.486Z,100744.53
2023-01-13T18:26:47.384Z,100751.44
2023-01-13T18:29:13.722Z,100754.63
2023-01-13T18:31:40.122Z,100747.72
2023-01-13T18:34:06.483Z,100747.72
2023-01-13T18:36:32.956Z,100761.41
2023-01-13T18:38:59.381Z,100752.78
2023-01-13T18:41:44.620Z,100761.44
2023-01-13T18:44:10.920Z,100769.19
2023-01-13T18:46:37.273Z,100768.00
2023-01-13T18:49:03.728Z,100768.00
2023-01-13T18:51:30.089Z,100775.41
2023-01-13T18:53:56.709Z,100785.16
2023-01-13T18:56:24.739Z,100786.19
2023-01-13T18:58:52.088Z,100781.16
2023-01-13T19:01:23.020Z,100783.50
2023-01-13T19:03:56.643Z,100785.38
2023-01-13T19:06:25.953Z,100791.25
2023-01-13T19:08:55.057Z,100793.78
2023-01-13T19:11:22.408Z,100802.19
2023-01-13T19:13:49.424Z,100796.28
2023-01-13T19:16:16.289Z,100808.94
2023-01-13T19:18:42.751Z,100806.75
2023-01-13T19:21:09.341Z,100826.66
2023-01-13T19:23:36.099Z,100820.75
2023-01-13T19:26:04.119Z,100819.91
2023-01-13T19:28:34.021Z,100816.03
2023-01-13T19:31:04.492Z,100807.75
2023-01-13T19:33:32.666Z,100816.69
2023-01-13T19:35:59.450Z,100810.28
2023-01-13T19:38:26.099Z,100819.38
2023-01-13T19:41:00.549Z,100816.56
2023-01-13T19:43:45.888Z,100819.56
2023-01-13T19:46:13.089Z,100818.06
2023-01-13T19:48:39.564Z,100822.44
2023-01-13T19:51:06.150Z,100824.13
2023-01-13T19:53:32.578Z,100835.28
2023-01-13T19:55:59.211Z,100823.28
2023-01-13T19:58:26.111Z,100829.88
2023-01-13T20:00:53.887Z,100835.75
2023-01-13T20:03:24.214Z,100832.06
2023-01-13T20:05:51.303Z,100839.50
2023-01-13T20:08:21.937Z,100845.59
2023-01-13T20:10:48.992Z,100851.16
2023-01-13T20:13:16.179Z,100858.75
2023-01-13T20:15:43.358Z,100862.13
2023-01-13T20:18:09.794Z,100865.47
2023-01-13T20:20:37.106Z,100877.28
2023-01-13T20:23:03.524Z,100875.28
2023-01-13T20:25:29.999Z,100880.66
2023-01-13T20:27:56.421Z,100882.34
2023-01-13T20:30:23.273Z,100880.31
2023-01-13T20:32:49.599Z,100888.06
2023-01-13T20:35:16.989Z,100885.22
2023-01-13T20:37:43.787Z,100888.75
2023-01-13T20:40:12.631Z,100890.59
2023-01-13T20:42:44.515Z,100888.94
2023-01-13T20:45:17.219Z,100890.94
2023-01-13T20:47:44.512Z,100899.22
2023-01-13T20:50:11.064Z,100903.44
2023-01-13T20:52:37.705Z,100907.97
2023-01-13T20:55:05.763Z,100910.00
2023-01-13T20:57:32.137Z,100904.94
2023-01-13T20:59:58.505Z,100921.13
2023-01-13T21:02:25.540Z,100919.63
2023-01-13T21:04:51.940Z,100929.75
2023-01-13T21:07:18.338Z,100927.91
2023-01-13T21:09:44.698Z,100937.50
2023-01-13T21:12:33.301Z,100940.34
2023-01-13T21:15:17.544Z,100933.28
2023-01-13T21:18:03.345Z,100934.97
2023-01-13T21:20:35.852Z,100871.66
2023-01-13T21:23:02.848Z,100928.88
2023-01-13T21:25:29.625Z,100929.38
2023-01-13T21:27:59.322Z,100931.94
2023-01-13T21:30:25.693Z,100938.31
2023-01-13T21:32:52.094Z,100939.69
2023-01-13T21:35:18.475Z,100924.31
2023-01-13T21:37:44.873Z,100936.28
2023-01-13T21:40:12.484Z,100938.31
2023-01-13T21:42:57.692Z,100935.44
2023-01-13T21:45:42.627Z,100939.69
2023-01-13T21:48:09.120Z,100950.47
2023-01-13T21:50:36.194Z,100950.97
2023-01-13T21:53:02.611Z,100957.19
2023-01-13T21:55:29.283Z,100960.91
2023-01-13T21:57:57.172Z,100956.22
2023-01-13T22:00:25.055Z,100967.34
2023-01-13T22:02:51.499Z,100963.28
2023-01-13T22:05:19.313Z,100977.28
2023-01-13T22:07:45.786Z,100971.19
2023-01-13T22:10:13.631Z,100977.44
2023-01-13T22:12:40.478Z,100974.59
2023-01-13T22:15:07.677Z,100972.53
2023-01-13T22:17:34.145Z,100975.56
2023-01-13T22:20:01.295Z,100983.84
2023-01-13T22:22:28.998Z,100987.56
2023-01-13T22:24:55.342Z,100988.25
2023-01-13T22:27:23.553Z,100988.41
2023-01-13T22:29:50.675Z,100982.31
2023-01-13T22:32:17.413Z,100988.56
2023-01-13T22:34:43.958Z,100990.94
2023-01-13T22:37:10.333Z,100996.00
2023-01-13T22:39:36.767Z,100997.19
2023-01-13T22:42:03.576Z,101000.91
2023-01-13T22:44:29.990Z,101006.47
2023-01-13T22:46:56.318Z,101002.75
2023-01-13T22:49:22.997Z,101008.16
2023-01-13T22:51:49.308Z,101017.41
2023-01-13T22:54:16.818Z,101030.41
2023-01-13T22:56:43.383Z,101027.53
2023-01-13T22:59:11.078Z,101023.97
2023-01-13T23:01:37.551Z,101034.78
2023-01-13T23:04:04.562Z,101030.41
2023-01-13T23:06:32.191Z,101028.69
2023-01-13T23:08:58.755Z,101033.09
2023-01-13T23:11:26.816Z,101039.84
2023-01-13T23:13:57.437Z,101032.09
2023-01-13T23:16:24.168Z,101031.41
2023-01-13T23:18:50.686Z,101036.09
2023-01-13T23:21:27.741Z,101034.41
2023-01-13T23:23:54.616Z,101027.31
2023-01-13T23:26:21.486Z,101037.28
2023-01-13T23:28:47.806Z,101030.19
2023-01-13T23:31:15.842Z,101037.09
2023-01-13T23:33:43.389Z,101040.81
2023-01-13T23:36:14.138Z,101040.47
2023-01-13T23:38:41.469Z,101046.19
2023-01-13T23:41:08.898Z,101049.06
2023-01-13T23:43:35.596Z,101044.53
2023-01-13T23:46:06.503Z,101055.31
2023-01-13T23:48:33.135Z,101055.78
2023-01-13T23:51:00.420Z,101057.50
2023-01-13T23:53:35.168Z,101055.31
2023-01-13T23:56:02.778Z,101060.38
2023-01-13T23:58:29.534Z,101062.72
